Time;durP1;ratioP1;P1;durP2;ratioP2;P2;SDS_P1;SDS_P2;PMS_P1;PMS_P2;Temp;Humidity;BMP_temperature;BMP_pressure;BME280_temperature;BME280_humidity;BME280_pressure;Samples;Min_cycle;Max_cycle;Signal;HPM_P1;HPM_P2
2023/05/24 00:00:42;;;;;;;20.08;9.57;;;;;;;17.25;88.83;99513.25;5068246;28;20036;-38
2023/05/24 00:03:09;;;;;;;14.07;8.75;;;;;;;17.24;88.29;99508.06;5083633;28;20135;-38
2023/05/24 00:05:36;;;;;;;13.90;7.40;;;;;;;17.22;87.57;99505.53;5084912;28;20043;-39
2023/05/24 00:08:03;;;;;;;12.75;7.65;;;;;;;17.22;87.97;99512.56;5084607;28;20113;-38
2023/05/24 00:10:29;;;;;;;12.23;8.52;;;;;;;17.17;88.48;99502.38;5087183;28;20043;-39
2023/05/24 00:12:55;;;;;;;10.35;7.95;;;;;;;17.13;89.43;99507.91;5086559;28;20036;-39
2023/05/24 00:15:21;;;;;;;14.90;8.50;;;;;;;17.09;90.12;99501.19;5087501;28;20566;-39
2023/05/24 00:17:47;;;;;;;12.27;8.63;;;;;;;17.06;90.87;99502.19;5085652;28;20031;-38
2023/05/24 00:20:13;;;;;;;14.30;8.52;;;;;;;17.06;91.34;99502.19;5063911;28;20044;-38
2023/05/24 00:22:40;;;;;;;13.70;8.57;;;;;;;17.06;91.44;99502.19;5082670;28;20047;-38
2023/05/24 00:25:06;;;;;;;11.18;8.02;;;;;;;17.02;92.07;99500.72;5088035;28;20122;-38
2023/05/24 00:27:32;;;;;;;10.23;6.63;;;;;;;17.03;92.43;99497.16;5068082;28;20068;-39
2023/05/24 00:29:59;;;;;;;13.60;6.85;;;;;;;17.04;91.35;99496.22;5050710;28;20043;-37
2023/05/24 00:32:24;;;;;;;11.75;6.60;;;;;;;16.93;89.92;99470.63;5066656;28;20036;-37
2023/05/24 00:34:50;;;;;;;11.02;6.45;;;;;;;17.07;88.35;99495.16;5085764;28;20058;-38
2023/05/24 00:37:16;;;;;;;10.70;6.05;;;;;;;16.97;87.29;99467.81;5050466;28;20134;-37
2023/05/24 00:39:42;;;;;;;10.60;6.05;;;;;;;17.10;85.99;99492.38;5056061;28;20071;-38
2023/05/24 00:42:09;;;;;;;14.30;6.05;;;;;;;17.08;85.17;99487.19;5068049;28;20488;-38
2023/05/24 00:44:35;;;;;;;10.27;6.25;;;;;;;17.08;84.55;99487.19;5087486;28;20064;-38
2023/05/24 00:47:01;;;;;;;12.77;5.78;;;;;;;17.04;83.95;99490.13;5070153;28;20047;-39
2023/05/24 00:49:27;;;;;;;10.65;6.32;;;;;;;17.02;83.81;99487.59;5069866;28;20055;-39
2023/05/24 00:51:54;;;;;;;13.60;6.35;;;;;;;17.00;83.67;99489.47;5087664;28;20040;-38
2023/05/24 00:54:20;;;;;;;11.32;7.10;;;;;;;16.94;83.83;99482.00;5087573;28;20071;-40
2023/05/24 00:56:47;;;;;;;12.20;6.60;;;;;;;16.92;84.99;99484.69;5053313;28;20569;-39
2023/05/24 00:59:13;;;;;;;11.43;6.18;;;;;;;16.92;85.59;99487.34;5069952;28;20039;-38
2023/05/24 01:01:40;;;;;;;15.55;6.60;;;;;;;16.86;85.50;99481.63;5062334;28;20532;-39
2023/05/24 01:04:07;;;;;;;17.63;7.40;;;;;;;16.87;86.95;99485.94;5069075;28;20051;-39
2023/05/24 01:06:45;;;;;;;10.73;6.90;;;;;;;16.82;88.37;99482.75;5068043;28;20036;-38
2023/05/24 01:09:43;;;;;;;11.67;7.30;;;;;;;16.78;88.93;99474.25;5066602;28;20055;-38
2023/05/24 01:12:36;;;;;;;11.30;6.72;;;;;;;16.73;89.72;99473.69;5032185;28;20539;-38
2023/05/24 01:15:07;;;;;;;15.00;6.75;;;;;;;16.71;90.30;99474.72;5044783;28;20047;-38
2023/05/24 01:18:06;;;;;;;10.60;6.50;;;;;;;16.68;90.84;99467.88;5076032;28;20044;-38
2023/05/24 01:20:33;;;;;;;16.10;6.60;;;;;;;16.67;90.95;99463.56;5086107;28;20047;-40
2023/05/24 01:23:08;;;;;;;9.25;6.47;;;;;;;16.67;91.45;99462.72;5066500;28;20035;-38
2023/05/24 01:25:58;;;;;;;13.30;7.47;;;;;;;16.65;91.96;99460.19;5082951;28;20633;-37
2023/05/24 01:28:24;;;;;;;10.95;7.20;;;;;;;16.65;91.84;99454.94;5042540;28;20043;-38
2023/05/24 01:30:53;;;;;;;10.00;7.15;;;;;;;16.66;92.26;99454.00;5053354;28;20628;-39
2023/05/24 01:33:23;;;;;;;11.93;7.55;;;;;;;16.66;92.67;99454.00;5052260;28;20032;-38
2023/05/24 01:35:49;;;;;;;11.50;7.15;;;;;;;16.66;93.40;99454.00;5069229;28;20097;-38
2023/05/24 01:38:15;;;;;;;12.00;7.72;;;;;;;16.67;93.76;99454.84;5068662;28;20048;-38
2023/05/24 01:40:41;;;;;;;13.55;7.82;;;;;;;16.67;94.25;99452.22;5069033;28;20040;-39
2023/05/24 01:43:11;;;;;;;13.65;7.05;;;;;;;16.66;94.59;99456.63;5051906;28;20515;-39
2023/05/24 01:46:16;;;;;;;12.30;7.10;;;;;;;16.66;94.73;99458.41;5054406;28;20511;-38
2023/05/24 01:48:47;;;;;;;12.13;6.32;;;;;;;16.66;94.92;99458.41;5056281;28;20506;-38
2023/05/24 01:51:17;;;;;;;10.57;7.65;;;;;;;16.65;94.18;99454.09;5053597;28;20036;-39
2023/05/24 01:53:46;;;;;;;12.00;7.28;;;;;;;16.54;94.32;99438.97;5050053;28;20056;-38
2023/05/24 01:56:12;;;;;;;;;;;;;;;16.68;93.94;99457.38;5072604;28;20801;-39
2023/05/24 01:58:40;;;;;;;14.13;7.22;;;;;;;16.52;94.00;99441.72;5070672;28;19915;-38
2023/05/24 02:01:06;;;;;;;10.80;6.73;;;;;;;16.55;93.71;99440.66;5053548;28;20134;-38
2023/05/24 02:03:32;;;;;;;12.10;6.78;;;;;;;16.67;93.32;99455.69;5070852;28;20130;-40
2023/05/24 02:05:58;;;;;;;11.13;6.68;;;;;;;16.70;93.03;99449.38;5088774;28;20043;-39
2023/05/24 02:08:24;;;;;;;8.82;5.80;;;;;;;16.71;92.63;99454.56;5071865;28;20109;-39
2023/05/24 02:10:50;;;;;;;10.82;6.18;;;;;;;16.73;91.86;99463.19;5091265;28;20075;-39
2023/05/24 02:13:18;;;;;;;11.43;5.95;;;;;;;16.63;91.60;99441.06;5056086;28;20028;-38
2023/05/24 02:15:46;;;;;;;10.13;6.03;;;;;;;16.75;91.06;99447.31;5088583;28;21436;-39
2023/05/24 02:18:13;;;;;;;10.30;5.75;;;;;;;16.78;90.68;99449.75;5073240;28;20039;-38
2023/05/24 02:20:59;;;;;;;8.18;5.68;;;;;;;16.79;90.59;99456.72;5076002;28;20051;-39
2023/05/24 02:23:25;;;;;;;8.63;5.68;;;;;;;16.79;90.51;99454.94;5090988;28;20040;-39
2023/05/24 02:25:52;;;;;;;9.82;5.97;;;;;;;16.78;90.14;99453.22;5055621;28;20074;-39
2023/05/24 02:28:18;;;;;;;12.70;6.45;;;;;;;16.80;89.99;99456.59;5090219;28;20168;-38
2023/05/24 02:30:44;;;;;;;11.82;6.43;;;;;;;16.79;90.19;99454.09;5054009;28;20039;-39
2023/05/24 02:33:11;;;;;;;10.77;6.10;;;;;;;16.80;90.15;99458.41;5049055;28;20047;-38
2023/05/24 02:35:37;;;;;;;13.75;6.40;;;;;;;16.72;90.08;99448.38;5066763;28;20040;-39
2023/05/24 02:38:05;;;;;;;14.45;6.60;;;;;;;16.82;90.13;99456.50;5070139;28;20043;-37
2023/05/24 02:40:31;;;;;;;12.07;6.00;;;;;;;16.82;90.06;99452.09;5088728;28;20082;-38
2023/05/24 02:42:58;;;;;;;10.45;6.18;;;;;;;16.81;89.91;99455.66;5088418;28;20082;-39
2023/05/24 02:45:24;;;;;;;10.00;6.10;;;;;;;16.83;89.44;99437.19;5071847;28;20101;-38
2023/05/24 02:47:50;;;;;;;9.70;6.22;;;;;;;16.90;88.94;99446.38;5069665;28;20565;-38
2023/05/24 02:50:16;;;;;;;9.73;6.07;;;;;;;16.92;88.54;99445.31;5055697;28;20089;-37
2023/05/24 02:52:42;;;;;;;10.75;6.68;;;;;;;16.97;88.28;99439.75;5089141;28;20055;-38
2023/05/24 02:55:08;;;;;;;10.95;6.32;;;;;;;16.88;87.85;99409.69;5054177;28;20476;-39
2023/05/24 02:57:34;;;;;;;10.32;5.90;;;;;;;17.03;86.89;99430.66;5070507;28;20032;-38
2023/05/24 03:00:00;;;;;;;10.18;6.07;;;;;;;17.04;85.79;99435.81;5088495;28;20411;-39
2023/05/24 03:02:28;;;;;;;10.88;5.80;;;;;;;17.06;84.85;99436.53;5071712;28;20123;-38
2023/05/24 03:04:53;;;;;;;12.50;5.80;;;;;;;17.09;84.70;99444.22;5070198;28;20104;-39
2023/05/24 03:07:20;;;;;;;8.35;5.15;;;;;;;17.12;84.43;99441.41;5071631;28;20040;-38
2023/05/24 03:09:46;;;;;;;9.57;6.10;;;;;;;17.20;83.87;99440.91;5070830;28;20131;-38
2023/05/24 03:12:12;;;;;;;7.40;4.95;;;;;;;17.24;83.67;99435.34;5053397;28;20441;-38
2023/05/24 03:14:38;;;;;;;8.68;5.45;;;;;;;17.31;82.77;99441.06;5071290;28;20093;-38
2023/05/24 03:17:04;;;;;;;14.57;6.47;;;;;;;17.35;81.92;99424.13;5071627;28;20048;-37
2023/05/24 03:19:32;;;;;;;13.05;5.38;;;;;;;17.35;81.56;99430.22;5053757;28;20068;-38
2023/05/24 03:21:58;;;;;;;7.50;5.57;;;;;;;17.45;81.07;99429.63;5074717;28;20542;-39
2023/05/24 03:24:24;;;;;;;10.35;5.03;;;;;;;17.45;81.02;99425.19;5059769;28;20071;-39
2023/05/24 03:26:50;;;;;;;7.07;5.18;;;;;;;17.46;80.87;99428.69;5071260;28;20580;-39
2023/05/24 03:29:17;;;;;;;10.48;5.20;;;;;;;17.49;80.15;99442.44;5051490;28;20044;-39
2023/05/24 03:31:43;;;;;;;9.18;5.38;;;;;;;17.53;80.08;99437.84;5070086;28;20044;-39
2023/05/24 03:34:09;;;;;;;8.32;5.55;;;;;;;17.57;80.01;99442.78;5070668;28;20134;-38
2023/05/24 03:36:37;;;;;;;8.57;5.15;;;;;;;17.61;79.94;99435.56;5065987;28;20054;-38
2023/05/24 03:39:03;;;;;;;11.82;5.25;;;;;;;17.66;79.81;99439.56;5037307;28;20410;-38
2023/05/24 03:41:35;;;;;;;8.27;5.60;;;;;;;17.74;79.16;99436.44;5070218;28;20048;-38
2023/05/24 03:44:01;;;;;;;10.00;5.15;;;;;;;17.77;79.24;99437.06;5070809;28;20036;-39
2023/05/24 03:46:29;;;;;;;7.80;4.85;;;;;;;17.83;79.11;99427.94;5069508;28;20043;-38
2023/05/24 03:48:55;;;;;;;8.48;5.18;;;;;;;17.88;79.35;99428.44;5071027;28;20039;-38
2023/05/24 03:51:28;;;;;;;9.65;5.68;;;;;;;18.00;79.12;99421.50;5070111;28;20412;-45
2023/05/24 03:53:57;;;;;;;9.88;6.07;;;;;;;18.11;78.25;99417.16;5070731;28;20052;-39
2023/05/24 03:56:25;;;;;;;9.57;5.35;;;;;;;18.21;77.46;99417.41;5050294;28;20800;-39
2023/05/24 03:58:52;;;;;;;8.38;6.20;;;;;;;18.31;76.85;99402.66;5041215;28;20499;-39
2023/05/24 04:01:18;;;;;;;13.00;5.18;;;;;;;18.36;76.48;99412.84;5087557;28;20040;-37
2023/05/24 04:03:45;;;;;;;8.68;5.72;;;;;;;18.44;76.04;99413.97;5053283;28;20038;-38
2023/05/24 04:06:12;;;;;;;16.05;11.43;;;;;;;18.40;75.50;99388.81;5053014;28;20487;-39
2023/05/24 04:08:38;;;;;;;9.77;5.90;;;;;;;18.51;75.38;99388.91;5068728;28;20048;-38
2023/05/24 04:11:04;;;;;;;10.23;4.80;;;;;;;18.70;74.81;99406.03;5088290;28;20052;-39
2023/05/24 04:13:30;;;;;;;8.38;5.30;;;;;;;18.67;73.13;99382.56;5052033;28;20127;-39
2023/05/24 04:15:56;;;;;;;10.13;6.07;;;;;;;18.66;72.29;99386.16;5070301;28;20478;-40
2023/05/24 04:18:22;;;;;;;13.75;5.47;;;;;;;18.71;71.74;99394.56;5068948;28;20370;-38
2023/05/24 04:20:48;;;;;;;14.27;5.80;;;;;;;18.81;70.98;99409.56;5068628;28;20040;-38
2023/05/24 04:23:13;;;;;;;9.40;5.57;;;;;;;18.80;70.84;99407.88;5068726;28;20028;-39
2023/05/24 04:25:39;;;;;;;12.18;6.05;;;;;;;18.66;70.34;99383.50;5053728;28;20426;-38
2023/05/24 04:28:07;;;;;;;11.05;6.40;;;;;;;18.77;69.86;99397.59;5068941;28;20101;-38
2023/05/24 04:30:34;;;;;;;9.50;5.63;;;;;;;18.79;69.72;99403.56;5033915;28;20036;-39
2023/05/24 04:33:00;;;;;;;14.27;5.80;;;;;;;18.83;69.71;99406.84;5053058;28;20036;-39
2023/05/24 04:35:29;;;;;;;9.25;5.05;;;;;;;18.87;69.58;99400.38;5053015;28;20453;-39
2023/05/24 04:37:56;;;;;;;8.20;4.85;;;;;;;18.89;69.63;99401.94;5068583;28;20468;-39
2023/05/24 04:40:22;;;;;;;10.30;5.22;;;;;;;18.91;69.09;99400.06;5052097;28;20094;-39
2023/05/24 04:42:49;;;;;;;7.88;5.20;;;;;;;18.83;69.06;99385.78;5069234;28;20036;-38
2023/05/24 04:45:15;;;;;;;10.48;6.05;;;;;;;18.96;68.69;99397.06;5087666;28;20035;-38
2023/05/24 04:47:42;;;;;;;7.05;5.15;;;;;;;18.91;68.70;99393.94;5087273;28;20573;-38
2023/05/24 04:50:08;;;;;;;11.98;5.38;;;;;;;19.05;68.72;99399.06;5086381;28;20526;-43
2023/05/24 04:52:35;;;;;;;10.25;5.40;;;;;;;19.10;68.69;99401.34;5068849;28;20056;-39
2023/05/24 04:55:02;;;;;;;9.60;5.05;;;;;;;19.15;68.51;99405.34;5086352;28;20146;-39
2023/05/24 04:57:30;;;;;;;10.15;6.25;;;;;;;19.23;68.80;99405.59;5085306;28;20568;-40
2023/05/24 04:59:56;;;;;;;10.25;5.47;;;;;;;19.32;68.53;99406.69;5087002;28;20077;-39
2023/05/24 05:02:22;;;;;;;8.07;5.20;;;;;;;19.51;68.00;99412.31;5068910;28;20043;-40
2023/05/24 05:04:48;;;;;;;8.65;5.03;;;;;;;19.62;67.42;99388.63;5066285;28;20040;-39
2023/05/24 05:07:14;;;;;;;8.25;5.32;;;;;;;20.02;66.60;99411.94;5087749;28;20478;-39
2023/05/24 05:09:40;;;;;;;8.55;6.00;;;;;;;20.32;65.72;99419.28;5086432;28;20036;-38
2023/05/24 05:12:06;;;;;;;9.00;5.57;;;;;;;20.70;64.76;99419.72;5068280;28;20043;-38
2023/05/24 05:14:33;;;;;;;9.25;5.40;;;;;;;21.05;63.59;99424.78;5086694;28;20043;-38
2023/05/24 05:16:58;;;;;;;15.55;7.53;;;;;;;21.32;62.82;99417.28;5068830;28;20499;-38
2023/05/24 05:19:24;;;;;;;10.80;6.20;;;;;;;21.42;61.80;99394.38;5066601;28;20044;-38
2023/05/24 05:21:50;;;;;;;9.50;5.30;;;;;;;21.64;61.18;99416.41;5068612;28;20063;-39
2023/05/24 05:24:17;;;;;;;13.82;6.00;;;;;;;21.74;60.91;99417.28;5068782;28;20039;-39
2023/05/24 05:26:43;;;;;;;11.02;5.25;;;;;;;21.92;60.49;99421.03;5067865;28;20048;-39
2023/05/24 05:29:09;;;;;;;8.52;5.20;;;;;;;22.11;59.67;99418.53;5070983;28;20071;-39
2023/05/24 05:31:35;;;;;;;8.68;4.70;;;;;;;22.13;58.71;99386.63;5071328;28;20112;-39
2023/05/24 05:34:01;;;;;;;5.90;4.53;;;;;;;22.52;58.13;99422.88;5068335;28;20101;-38
2023/05/24 05:36:27;;;;;;;9.98;5.07;;;;;;;22.37;57.27;99425.06;5052055;28;20139;-39
2023/05/24 05:38:53;;;;;;;7.82;5.00;;;;;;;22.35;57.53;99418.19;5046177;28;20043;-38
2023/05/24 05:41:19;;;;;;;11.60;5.10;;;;;;;22.53;57.28;99426.34;5069231;28;20075;-39
2023/05/24 05:43:45;;;;;;;15.30;4.70;;;;;;;22.61;56.79;99392.09;5067945;28;20096;-38
2023/05/24 05:46:13;;;;;;;11.63;4.80;;;;;;;23.10;55.92;99415.06;5071605;28;20135;-39
2023/05/24 05:48:40;;;;;;;11.98;5.05;;;;;;;23.37;55.38;99414.38;5072514;28;20067;-40
2023/05/24 05:51:06;;;;;;;10.15;4.90;;;;;;;23.55;54.83;99423.34;5078041;28;20466;-40
2023/05/24 05:53:33;;;;;;;9.80;4.72;;;;;;;23.51;54.45;99416.63;5085269;28;20082;-39
2023/05/24 05:55:59;;;;;;;10.27;4.75;;;;;;;23.44;54.38;99419.00;5085789;28;20036;-38
2023/05/24 05:58:25;;;;;;;9.20;4.55;;;;;;;23.43;54.07;99409.34;5062820;28;20051;-42
2023/05/24 06:00:51;;;;;;;8.85;5.20;;;;;;;23.40;54.01;99387.53;5086031;28;20071;-40
2023/05/24 06:03:17;;;;;;;10.50;4.70;;;;;;;23.58;53.71;99399.16;5086719;28;20032;-39
2023/05/24 06:05:42;;;;;;;8.00;5.28;;;;;;;23.61;53.05;99401.53;5068781;28;20078;-40
2023/05/24 06:08:08;;;;;;;8.27;4.95;;;;;;;23.51;52.99;99390.09;5087050;28;20051;-39
2023/05/24 06:10:34;;;;;;;8.88;5.15;;;;;;;23.46;52.73;99376.41;5086556;28;20560;-39
2023/05/24 06:13:02;;;;;;;8.75;4.47;;;;;;;23.68;51.98;99393.84;5065064;28;20497;-36
2023/05/24 06:15:29;;;;;;;12.05;4.47;;;;;;;23.92;51.59;99396.84;5065225;28;20036;-38
2023/05/24 06:17:55;;;;;;;9.70;5.03;;;;;;;24.11;50.77;99391.50;5035541;28;20055;-35
2023/05/24 06:20:22;;;;;;;10.65;5.00;;;;;;;24.28;50.42;99401.38;5052278;28;20067;-34
2023/05/24 06:22:49;;;;;;;10.32;5.80;;;;;;;24.43;49.90;99404.38;5086017;28;20047;-35
2023/05/24 06:25:19;;;;;;;12.00;5.38;;;;;;;24.53;49.97;99396.38;5068676;28;20038;-36
2023/05/24 06:27:46;;;;;;;11.95;4.65;;;;;;;24.57;49.43;99395.06;5086903;28;20090;-38
2023/05/24 06:30:13;;;;;;;12.90;5.20;;;;;;;24.40;49.17;99384.25;5047328;28;20047;-35
2023/05/24 06:32:39;;;;;;;14.77;5.22;;;;;;;24.45;48.61;99395.28;5075981;28;20040;-36
2023/05/24 06:35:05;;;;;;;10.07;4.75;;;;;;;24.33;48.81;99400.94;5098650;28;20114;-35
2023/05/24 06:37:32;;;;;;;8.15;4.80;;;;;;;24.30;49.40;99386.13;5074398;28;20135;-37
2023/05/24 06:39:58;;;;;;;12.63;5.20;;;;;;;24.31;49.65;99392.28;5062946;28;20064;-36
2023/05/24 06:42:24;;;;;;;8.30;4.85;;;;;;;24.21;49.54;99388.81;5099709;28;20074;-35
2023/05/24 06:44:50;;;;;;;9.43;5.03;;;;;;;23.83;49.58;99387.09;5078727;28;20089;-39
2023/05/24 06:47:16;;;;;;;10.07;5.10;;;;;;;23.48;49.83;99385.06;5069760;28;20572;-36
2023/05/24 06:49:42;;;;;;;8.35;4.93;;;;;;;23.49;50.07;99386.75;5072175;28;20047;-37
2023/05/24 06:52:08;;;;;;;13.52;6.22;;;;;;;23.49;50.40;99387.59;5038297;28;20052;-39
2023/05/24 06:54:35;;;;;;;12.75;8.18;;;;;;;23.55;50.11;99394.97;5054231;28;20047;-34
2023/05/24 06:57:00;;;;;;;7.38;4.80;;;;;;;23.56;49.99;99390.50;5093742;28;20035;-36
2023/05/24 06:59:26;;;;;;;6.72;4.20;;;;;;;23.66;50.08;99390.50;5093145;28;20031;-35
2023/05/24 07:01:56;;;;;;;6.10;4.20;;;;;;;23.96;50.15;99390.28;5098144;28;20040;-37
2023/05/24 07:04:23;;;;;;;9.40;4.88;;;;;;;24.23;49.59;99389.53;5076767;28;20078;-37
2023/05/24 07:06:50;;;;;;;9.02;4.13;;;;;;;24.43;49.23;99383.97;5094375;28;20497;-37
2023/05/24 07:09:20;;;;;;;6.40;4.63;;;;;;;24.69;48.63;99385.91;5072650;28;20043;-37
2023/05/24 07:11:46;;;;;;;11.88;4.70;;;;;;;25.05;47.64;99395.63;5077957;28;20063;-35
2023/05/24 07:14:12;;;;;;;7.85;4.30;;;;;;;25.33;46.44;99378.56;5092615;28;20035;-36
2023/05/24 07:16:38;;;;;;;10.25;4.78;;;;;;;25.55;46.31;99389.72;5084596;28;20040;-36
2023/05/24 07:19:04;;;;;;;10.98;4.55;;;;;;;25.84;45.81;99387.66;5098168;28;20039;-36
2023/05/24 07:21:30;;;;;;;8.75;4.88;;;;;;;26.11;45.21;99378.66;5096384;28;20130;-36
2023/05/24 07:23:56;;;;;;;8.23;4.80;;;;;;;25.89;44.79;99387.19;5075184;28;20100;-35
2023/05/24 07:26:22;;;;;;;7.70;5.00;;;;;;;25.68;45.22;99390.22;5094649;28;20555;-37
2023/05/24 07:28:49;;;;;;;12.23;4.93;;;;;;;25.79;45.49;99383.78;5092576;28;20044;-36
2023/05/24 07:31:15;;;;;;;11.55;4.68;;;;;;;25.80;45.70;99388.97;5053615;28;20047;-35
2023/05/24 07:33:41;;;;;;;12.55;5.18;;;;;;;25.64;45.68;99391.50;5086036;28;20067;-34
2023/05/24 07:36:07;;;;;;;12.57;5.25;;;;;;;25.19;45.76;99384.44;5054197;28;20074;-35
2023/05/24 07:38:34;;;;;;;12.88;5.18;;;;;;;25.00;46.39;99371.31;5093674;28;20039;-35
2023/05/24 07:41:02;;;;;;;12.30;4.88;;;;;;;25.05;46.21;99390.31;5066747;28;20079;-35
2023/05/24 07:43:28;;;;;;;8.68;4.45;;;;;;;24.84;45.99;99363.97;5073896;28;20432;-36
2023/05/24 07:45:54;;;;;;;9.43;4.38;;;;;;;25.37;45.07;99399.56;5096691;28;20044;-38
2023/05/24 07:48:20;;;;;;;5.40;4.20;;;;;;;25.33;44.77;99397.22;5073432;28;20773;-35
2023/05/24 07:50:49;;;;;;;9.43;4.43;;;;;;;25.52;44.83;99401.53;5080169;28;20130;-36
2023/05/24 07:53:15;;;;;;;;;;;;;;;25.67;44.38;99405.34;5071787;28;20044;-35
2023/05/24 07:55:41;;;;;;;11.65;4.80;;;;;;;25.57;44.43;99401.09;5085084;28;19927;-35
2023/05/24 07:58:07;;;;;;;15.23;4.72;;;;;;;25.84;43.90;99392.97;5066939;28;20454;-36
2023/05/24 08:00:34;;;;;;;8.43;4.25;;;;;;;26.04;43.95;99394.44;5071984;28;20032;-37
2023/05/24 08:03:00;;;;;;;7.28;3.95;;;;;;;25.79;43.87;99400.59;5086262;28;20062;-36
2023/05/24 08:05:27;;;;;;;7.82;4.53;;;;;;;25.06;44.00;99404.44;5092541;28;20086;-39
2023/05/24 08:07:54;;;;;;;9.88;4.63;;;;;;;24.72;44.89;99402.41;5053402;28;20511;-38
2023/05/24 08:10:20;;;;;;;8.13;5.20;;;;;;;25.11;44.56;99400.34;5068964;28;20052;-38
2023/05/24 08:12:48;;;;;;;19.27;5.00;;;;;;;25.44;44.11;99406.78;5057313;28;20032;-39
2023/05/24 08:15:14;;;;;;;7.68;4.90;;;;;;;25.04;44.25;99409.06;5087544;28;20039;-47
2023/05/24 08:17:40;;;;;;;9.52;4.80;;;;;;;24.69;45.60;99402.72;5061269;28;20097;-38
2023/05/24 08:20:13;;;;;;;10.70;5.20;;;;;;;24.57;45.72;99406.53;5095763;28;20039;-39
2023/05/24 08:22:39;;;;;;;9.35;4.70;;;;;;;24.46;45.97;99383.66;5068714;28;20478;-38
2023/05/24 08:25:05;;;;;;;11.15;5.22;;;;;;;24.77;45.90;99412.59;5070771;28;20074;-37
2023/05/24 08:27:31;;;;;;;11.18;5.03;;;;;;;24.66;45.73;99413.63;5087830;28;20070;-38
2023/05/24 08:29:58;;;;;;;10.35;4.82;;;;;;;24.49;45.72;99412.59;5087440;28;20061;-37
2023/05/24 08:32:24;;;;;;;7.65;4.88;;;;;;;24.15;46.07;99387.56;5086831;28;20036;-38
2023/05/24 08:34:49;;;;;;;9.63;4.97;;;;;;;24.34;45.90;99411.41;5069353;28;20032;-40
2023/05/24 08:37:19;;;;;;;9.50;4.88;;;;;;;24.24;45.91;99396.47;5094734;28;20500;-39
2023/05/24 08:39:45;;;;;;;12.02;5.38;;;;;;;24.52;45.77;99384.88;5057192;28;20067;-39
2023/05/24 08:42:12;;;;;;;10.90;4.97;;;;;;;25.07;45.16;99406.94;5090594;28;20040;-37
2023/05/24 08:44:41;;;;;;;10.93;5.50;;;;;;;25.15;44.54;99404.38;5070638;28;20048;-38
2023/05/24 08:47:07;;;;;;;15.73;5.43;;;;;;;24.95;45.09;99404.66;5036296;28;20035;-38
2023/05/24 08:49:36;;;;;;;10.25;5.75;;;;;;;24.52;45.36;99386.72;5054116;28;20507;-37
2023/05/24 08:52:02;;;;;;;11.88;5.57;;;;;;;24.51;45.71;99399.16;5044464;28;20063;-36
2023/05/24 08:54:30;;;;;;;11.70;5.68;;;;;;;24.44;45.78;99377.63;5079778;28;20127;-38
2023/05/24 08:56:56;;;;;;;14.05;5.82;;;;;;;24.63;45.95;99405.13;5064761;28;20040;-37
2023/05/24 08:59:23;;;;;;;11.23;6.22;;;;;;;24.57;46.10;99403.88;5034987;28;20048;-44
2023/05/24 09:01:52;;;;;;;11.48;5.93;;;;;;;24.11;46.47;99402.13;5034273;28;20534;-43
2023/05/24 09:04:20;;;;;;;11.38;5.47;;;;;;;24.10;46.84;99408.41;5066801;28;20071;-40
2023/05/24 09:06:46;;;;;;;16.90;7.10;;;;;;;24.23;46.65;99402.81;5063726;28;20035;-40
2023/05/24 09:09:15;;;;;;;19.55;6.07;;;;;;;24.19;46.69;99402.25;5077253;28;20811;-40
2023/05/24 09:11:41;;;;;;;10.52;5.72;;;;;;;24.25;46.90;99409.63;5075252;28;20120;-39
2023/05/24 09:14:07;;;;;;;15.40;6.13;;;;;;;24.01;46.98;99396.00;5082409;28;20051;-40
2023/05/24 09:16:33;;;;;;;10.20;6.07;;;;;;;23.85;47.35;99396.59;5052477;28;20062;-40
2023/05/24 09:19:00;;;;;;;9.60;5.85;;;;;;;23.88;47.48;99398.13;5055139;28;20035;-41
2023/05/24 09:21:26;;;;;;;13.40;5.53;;;;;;;23.99;47.43;99401.44;5071542;28;20047;-41
2023/05/24 09:23:52;;;;;;;11.80;5.93;;;;;;;24.03;46.98;99380.72;5062163;28;20426;-39
2023/05/24 09:26:19;;;;;;;10.65;5.40;;;;;;;24.39;46.45;99409.13;5094799;28;20058;-40
2023/05/24 09:28:46;;;;;;;11.25;4.68;;;;;;;24.70;45.40;99406.22;5062491;28;20499;-40
2023/05/24 09:31:12;;;;;;;13.80;4.38;;;;;;;24.96;44.66;99395.72;5070272;28;20430;-40
2023/05/24 09:33:38;;;;;;;8.57;4.53;;;;;;;24.96;44.50;99406.34;5087592;28;20051;-40
2023/05/24 09:36:05;;;;;;;10.70;4.90;;;;;;;24.75;44.60;99406.59;5068529;28;20035;-39
2023/05/24 09:38:32;;;;;;;11.38;4.80;;;;;;;24.68;44.90;99411.66;5088357;28;20047;-39
2023/05/24 09:41:02;;;;;;;11.00;5.00;;;;;;;24.66;45.02;99415.44;5073046;28;20109;-41
2023/05/24 09:43:31;;;;;;;13.32;5.20;;;;;;;25.12;44.54;99404.66;5077422;28;20044;-40
2023/05/24 09:45:59;;;;;;;9.27;5.43;;;;;;;25.75;43.42;99404.53;5057267;28;20028;-40
2023/05/24 09:48:25;;;;;;;10.40;5.53;;;;;;;25.79;43.06;99389.13;5072706;28;20047;-40
2023/05/24 09:51:10;;;;;;;11.43;5.18;;;;;;;26.27;42.48;99404.59;5081821;28;20047;-39
2023/05/24 09:53:36;;;;;;;12.25;5.10;;;;;;;26.35;42.37;99404.59;5032294;28;20090;-39
2023/05/24 09:56:03;;;;;;;10.52;5.03;;;;;;;26.64;41.80;99388.22;5056787;28;20129;-40
2023/05/24 09:58:32;;;;;;;11.98;5.50;;;;;;;26.69;41.33;99407.25;5038258;28;20054;-38
2023/05/24 10:01:17;;;;;;;11.52;5.15;;;;;;;26.36;41.01;99404.44;5069481;28;20051;-39
2023/05/24 10:04:09;;;;;;;12.38;4.95;;;;;;;26.51;41.09;99407.34;5080345;28;20040;-40
2023/05/24 10:06:37;;;;;;;10.73;4.90;;;;;;;26.86;40.74;99409.78;5058124;28;20078;-40
2023/05/24 10:09:05;;;;;;;20.15;4.93;;;;;;;27.27;40.37;99405.38;5056908;28;20044;-39
2023/05/24 10:11:38;;;;;;;15.13;5.97;;;;;;;27.03;40.32;99401.84;5082170;28;20476;-40
2023/05/24 10:14:06;;;;;;;11.70;5.60;;;;;;;26.95;40.26;99390.16;5051675;28;20131;-44
2023/05/24 10:16:32;;;;;;;15.17;5.57;;;;;;;26.97;40.32;99414.00;5085516;28;20044;-41
2023/05/24 10:18:58;;;;;;;10.27;4.75;;;;;;;26.67;40.65;99407.41;5069436;28;20055;-39
2023/05/24 10:21:28;;;;;;;10.00;5.63;;;;;;;26.98;40.87;99405.00;5067912;28;20048;-39
2023/05/24 10:23:58;;;;;;;12.15;5.32;;;;;;;27.88;39.92;99413.91;5066943;28;20151;-39
2023/05/24 10:26:27;;;;;;;15.65;5.55;;;;;;;29.13;38.13;99425.47;5068512;28;20035;-42
2023/05/24 10:29:04;;;;;;;12.63;5.90;;;;;;;28.99;37.23;99400.31;5088754;28;20055;-40
2023/05/24 10:31:33;;;;;;;13.23;5.68;;;;;;;28.78;37.41;99429.56;5053759;28;20059;-40
2023/05/24 10:34:01;;;;;;;12.88;5.43;;;;;;;28.54;37.93;99418.91;5070961;28;20043;-39
2023/05/24 10:36:27;;;;;;;9.75;4.85;;;;;;;28.32;38.52;99422.34;5039129;28;20047;-40
2023/05/24 10:38:54;;;;;;;14.93;6.22;;;;;;;28.09;38.46;99430.25;5089082;28;20028;-40
2023/05/24 10:41:21;;;;;;;8.80;6.18;;;;;;;27.85;38.70;99430.25;5071621;28;20495;-39
2023/05/24 10:43:47;;;;;;;9.38;5.55;;;;;;;29.44;36.26;99404.03;5071864;28;20550;-40
2023/05/24 10:46:15;;;;;;;8.68;5.22;;;;;;;30.39;35.10;99418.50;5089845;28;20040;-39
2023/05/24 10:48:41;;;;;;;9.55;5.43;;;;;;;30.73;34.40;99434.03;5071549;28;20423;-39
2023/05/24 10:51:37;;;;;;;9.25;5.55;;;;;;;30.36;33.92;99426.91;5072180;28;20040;-40
2023/05/24 10:54:18;;;;;;;12.15;5.30;;;;;;;29.21;35.81;99416.53;5055316;28;20535;-40
2023/05/24 10:56:49;;;;;;;12.63;5.07;;;;;;;28.74;36.56;99424.69;5071230;28;20046;-39
2023/05/24 10:59:30;;;;;;;9.23;4.53;;;;;;;27.61;37.52;99428.47;5089848;28;20050;-39
2023/05/24 11:01:57;;;;;;;14.10;4.70;;;;;;;26.52;38.91;99385.84;5089782;28;20089;-39
2023/05/24 11:04:25;;;;;;;7.47;4.60;;;;;;;26.24;39.71;99415.53;5072367;28;20063;-38
2023/05/24 11:07:00;;;;;;;13.85;4.78;;;;;;;25.91;40.56;99427.81;5071139;28;20066;-38
2023/05/24 11:09:27;;;;;;;7.53;4.47;;;;;;;25.67;41.26;99433.81;5071164;28;20051;-39
2023/05/24 11:11:56;;;;;;;15.60;5.28;;;;;;;25.42;41.90;99426.56;5071895;28;20032;-39
2023/05/24 11:14:24;;;;;;;9.40;5.03;;;;;;;25.05;42.58;99426.72;5071537;28;20566;-39
2023/05/24 11:16:50;;;;;;;10.38;4.40;;;;;;;24.76;43.05;99432.19;5069043;28;20044;-38
2023/05/24 11:19:18;;;;;;;6.97;4.40;;;;;;;24.70;43.22;99436.28;5082988;28;20522;-39
2023/05/24 11:21:46;;;;;;;10.48;4.95;;;;;;;24.45;43.94;99436.97;5091230;28;20043;-40
2023/05/24 11:24:12;;;;;;;9.52;5.28;;;;;;;24.27;44.38;99439.56;5079034;28;20051;-40
2023/05/24 11:26:39;;;;;;;8.95;4.80;;;;;;;24.12;44.79;99437.50;5072679;28;20036;-40
2023/05/24 11:29:06;;;;;;;9.32;4.55;;;;;;;23.88;45.34;99435.28;5047036;28;20117;-39
2023/05/24 11:31:32;;;;;;;9.95;4.70;;;;;;;23.75;45.89;99440.91;5087192;28;20032;-38